Time;durP1;ratioP1;P1;durP2;ratioP2;P2;SDS_P1;SDS_P2;PMS_P1;PMS_P2;Temp;Humidity;BMP_temperature;BMP_pressure;BME280_temperature;BME280_humidity;BME280_pressure;Samples;Min_cycle;Max_cycle;Signal;HPM_P1;HPM_P2
2022/06/03 00:02:07;;;;;;;0.35;0.35;;;18.90;67.20;;;;;;4991143;28;20379;-72
2022/06/03 00:05:00;;;;;;;0.00;0.00;;;18.80;67.80;;;;;;4992717;28;20053;-73
2022/06/03 00:07:50;;;;;;;0.00;0.00;;;18.80;67.60;;;;;;4994784;28;20038;-72
2022/06/03 00:10:46;;;;;;;0.10;0.10;;;18.80;68.10;;;;;;4976790;28;20033;-72
2022/06/03 00:13:49;;;;;;;0.70;0.20;;;18.60;69.00;;;;;;4994665;28;20027;-73
2022/06/03 00:16:45;;;;;;;0.00;0.00;;;18.50;70.40;;;;;;4994680;28;20034;-71
2022/06/03 00:19:34;;;;;;;0.10;0.10;;;18.20;71.80;;;;;;4994161;28;20034;-71
2022/06/03 00:22:20;;;;;;;0.13;0.10;;;18.10;72.60;;;;;;4977114;28;20109;-71
2022/06/03 00:25:16;;;;;;;0.05;0.05;;;17.90;73.80;;;;;;4994364;28;20042;-71
2022/06/03 00:28:45;;;;;;;0.00;0.00;;;17.90;74.50;;;;;;4979210;28;20383;-71
2022/06/03 00:31:47;;;;;;;0.15;0.15;;;17.90;74.70;;;;;;4949381;28;20061;-71
2022/06/03 00:35:00;;;;;;;0.08;0.08;;;17.80;75.80;;;;;;4994184;28;20030;-72
2022/06/03 00:37:55;;;;;;;0.00;0.00;;;17.80;75.90;;;;;;4994222;28;20505;-71
2022/06/03 00:41:05;;;;;;;0.28;0.28;;;17.80;76.60;;;;;;4977080;28;20101;-71
2022/06/03 00:44:04;;;;;;;0.20;0.20;;;17.80;77.00;;;;;;4993897;28;20042;-71
2022/06/03 00:47:21;;;;;;;0.17;0.17;;;17.70;77.80;;;;;;4978333;28;20411;-71
2022/06/03 00:50:00;;;;;;;0.00;0.00;;;17.50;79.00;;;;;;4993011;28;20030;-71
2022/06/03 00:52:34;;;;;;;0.00;0.00;;;17.30;79.90;;;;;;4960595;28;20065;-72
2022/06/03 00:55:27;;;;;;;0.00;0.00;;;17.20;80.70;;;;;;4976791;28;20026;-72
2022/06/03 00:58:27;;;;;;;0.00;0.00;;;17.20;81.30;;;;;;4993585;28;20637;-71
2022/06/03 01:01:16;;;;;;;0.00;0.00;;;17.00;82.20;;;;;;4993629;28;20037;-71
2022/06/03 01:04:20;;;;;;;0.00;0.00;;;16.90;82.90;;;;;;4961039;28;20058;-71
2022/06/03 01:07:06;;;;;;;0.10;0.10;;;16.80;83.90;;;;;;4984048;28;20033;-71
2022/06/03 01:09:51;;;;;;;0.40;0.32;;;16.80;84.50;;;;;;4976266;28;20084;-71
2022/06/03 01:12:52;;;;;;;0.00;0.00;;;16.60;85.60;;;;;;4993191;28;20513;-71
2022/06/03 01:15:58;;;;;;;0.00;0.00;;;16.50;86.30;;;;;;4940869;28;20051;-71
2022/06/03 01:18:42;;;;;;;0.00;0.00;;;16.60;86.70;;;;;;4959297;28;20027;-71
2022/06/03 01:21:29;;;;;;;0.30;0.15;;;16.60;86.60;;;;;;4974034;28;20070;-71
2022/06/03 01:24:29;;;;;;;0.00;0.00;;;16.70;86.60;;;;;;4963912;28;20030;-71
2022/06/03 01:27:33;;;;;;;0.40;0.38;;;16.70;86.80;;;;;;4993019;28;20042;-72
2022/06/03 01:30:20;;;;;;;0.10;0.10;;;16.60;87.30;;;;;;4929961;28;20073;-71
2022/06/03 01:33:12;;;;;;;0.10;0.10;;;16.50;88.20;;;;;;4992831;28;20379;-71
2022/06/03 01:36:04;;;;;;;0.00;0.00;;;16.40;88.70;;;;;;4975482;28;20117;-72
2022/06/03 01:39:21;;;;;;;0.00;0.00;;;16.50;89.00;;;;;;4975083;28;20113;-71
2022/06/03 01:42:15;;;;;;;0.10;0.10;;;16.40;89.30;;;;;;4992726;28;20110;-71
2022/06/03 01:45:29;;;;;;;0.30;0.30;;;16.40;89.40;;;;;;4975131;28;20109;-71
2022/06/03 01:48:04;;;;;;;1.08;1.02;;;16.50;89.50;;;;;;4978409;28;20509;-71
2022/06/03 01:50:54;;;;;;;0.00;0.00;;;16.20;89.60;;;;;;4992083;28;20526;-71
2022/06/03 01:54:09;;;;;;;0.00;0.00;;;16.30;90.10;;;;;;4992806;28;20050;-72
2022/06/03 01:57:12;;;;;;;0.03;0.03;;;16.30;90.00;;;;;;4992323;28;20513;-72
2022/06/03 01:59:50;;;;;;;0.32;0.28;;;16.30;89.70;;;;;;4975234;28;20042;-72
2022/06/03 02:03:05;;;;;;;1.77;0.35;;;16.40;89.50;;;;;;4992486;28;20039;-72
2022/06/03 02:06:11;;;;;;;0.55;0.38;;;16.40;89.70;;;;;;4992467;28;20042;-72
2022/06/03 02:09:03;;;;;;;0.00;0.00;;;16.20;90.20;;;;;;4991904;28;20394;-72
2022/06/03 02:11:47;;;;;;;0.00;0.00;;;15.90;90.80;;;;;;4992413;28;20037;-72
2022/06/03 02:14:58;;;;;;;0.10;0.10;;;15.80;90.90;;;;;;4992007;28;20026;-72
2022/06/03 02:18:16;;;;;;;0.20;0.20;;;15.70;91.00;;;;;;4992293;28;20057;-72
2022/06/03 02:21:25;;;;;;;0.08;0.08;;;15.50;91.60;;;;;;4991400;28;20093;-73
2022/06/03 02:24:36;;;;;;;0.00;0.00;;;15.60;91.60;;;;;;4991679;28;20478;-72
2022/06/03 02:27:44;;;;;;;5.07;0.45;;;15.60;92.00;;;;;;4991906;28;20030;-72
2022/06/03 02:30:29;;;;;;;0.22;0.22;;;15.60;91.70;;;;;;4963271;28;20060;-72
2022/06/03 02:33:41;;;;;;;0.00;0.00;;;15.60;91.90;;;;;;4992033;28;20034;-73
2022/06/03 02:36:51;;;;;;;0.00;0.00;;;15.70;92.10;;;;;;4991829;28;20069;-72
2022/06/03 02:39:50;;;;;;;0.00;0.00;;;15.70;91.80;;;;;;4975926;28;20398;-72
2022/06/03 02:42:53;;;;;;;0.00;0.00;;;15.50;92.00;;;;;;4991614;28;20057;-72
2022/06/03 02:45:49;;;;;;;0.00;0.00;;;15.50;92.30;;;;;;4976511;28;20605;-73
2022/06/03 02:48:58;;;;;;;0.00;0.00;;;15.40;92.50;;;;;;4974258;28;20041;-72
2022/06/03 02:51:36;;;;;;;0.47;0.47;;;15.10;93.00;;;;;;4991521;28;20064;-72
2022/06/03 02:54:35;;;;;;;0.00;0.00;;;14.90;93.70;;;;;;4974559;28;20026;-72
2022/06/03 02:57:26;;;;;;;0.10;0.10;;;14.90;94.30;;;;;;4958957;28;20033;-72
2022/06/03 03:00:15;;;;;;;0.00;0.00;;;15.00;93.90;;;;;;4990871;28;20062;-72
2022/06/03 03:03:03;;;;;;;0.10;0.10;;;14.90;94.20;;;;;;4991410;28;20030;-72
2022/06/03 03:06:14;;;;;;;0.00;0.00;;;14.90;94.30;;;;;;4975814;28;20086;-72
2022/06/03 03:09:18;;;;;;;0.30;0.30;;;14.80;94.70;;;;;;4990599;28;20088;-72
2022/06/03 03:12:08;;;;;;;0.98;0.90;;;14.80;94.80;;;;;;4991396;28;20494;-73
2022/06/03 03:15:33;;;;;;;0.15;0.15;;;14.70;95.10;;;;;;4991250;28;20492;-73
2022/06/03 03:18:21;;;;;;;0.00;0.00;;;14.70;95.40;;;;;;4991459;28;20092;-72
2022/06/03 03:21:30;;;;;;;0.05;0.05;;;14.70;95.60;;;;;;4990816;28;20046;-72
2022/06/03 03:24:29;;;;;;;0.20;0.15;;;14.70;95.70;;;;;;4959441;28;20069;-73
2022/06/03 03:27:43;;;;;;;0.05;0.05;;;14.50;96.20;;;;;;4991086;28;20101;-72
2022/06/03 03:30:41;;;;;;;0.00;0.00;;;14.70;96.30;;;;;;4973272;28;20105;-72
2022/06/03 03:33:46;;;;;;;0.00;0.00;;;14.80;96.20;;;;;;4990972;28;20036;-72
2022/06/03 03:36:36;;;;;;;0.00;0.00;;;14.80;96.20;;;;;;4990788;28;20537;-72
2022/06/03 03:39:40;;;;;;;0.65;0.65;;;14.90;96.10;;;;;;4991244;28;20038;-72
2022/06/03 03:42:28;;;;;;;0.10;0.10;;;14.90;96.00;;;;;;4973132;28;20038;-72
2022/06/03 03:45:12;;;;;;;0.00;0.00;;;14.90;96.20;;;;;;4994983;28;20053;-73
2022/06/03 03:48:41;;;;;;;0.10;0.10;;;14.90;96.10;;;;;;4995220;28;20026;-72
2022/06/03 03:51:26;;;;;;;0.28;0.28;;;14.90;96.30;;;;;;4934322;29;20039;-72
2022/06/03 03:54:16;;;;;;;0.13;0.13;;;14.80;96.50;;;;;;4977662;28;20033;-72
2022/06/03 03:57:16;;;;;;;0.00;0.00;;;14.90;96.50;;;;;;4994480;28;20035;-72
2022/06/03 04:00:12;;;;;;;0.65;0.55;;;15.10;96.30;;;;;;4994054;28;20054;-70
2022/06/03 04:02:59;;;;;;;0.00;0.00;;;15.10;95.80;;;;;;4988259;28;20043;-67
2022/06/03 04:05:50;;;;;;;0.00;0.00;;;15.00;95.90;;;;;;4993200;28;20635;-67
2022/06/03 04:09:06;;;;;;;0.00;0.00;;;15.00;96.10;;;;;;4993818;28;20041;-67
2022/06/03 04:12:10;;;;;;;0.00;0.00;;;15.10;96.00;;;;;;4993637;28;20157;-67
2022/06/03 04:14:39;;;;;;;0.22;0.22;;;15.20;95.80;;;;;;4976709;28;20029;-69
2022/06/03 04:17:51;;;;;;;0.00;0.00;;;15.10;95.80;;;;;;4994250;28;20475;-67
2022/06/03 04:21:16;;;;;;;0.00;0.00;;;15.20;95.80;;;;;;4993420;28;20049;-67
2022/06/03 04:24:23;;;;;;;0.03;0.03;;;15.00;96.10;;;;;;4948876;28;20038;-67
2022/06/03 04:27:13;;;;;;;0.00;0.00;;;15.10;96.10;;;;;;4993849;28;20046;-66
2022/06/03 04:30:29;;;;;;;0.10;0.10;;;15.20;95.90;;;;;;4993065;28;20038;-67
2022/06/03 04:33:07;;;;;;;0.00;0.00;;;15.10;96.10;;;;;;4978777;28;20031;-66
2022/06/03 04:36:04;;;;;;;0.13;0.13;;;15.10;96.40;;;;;;4993812;28;20034;-67
2022/06/03 04:39:12;;;;;;;0.35;0.32;;;15.10;96.30;;;;;;4993241;28;20045;-66
2022/06/03 04:42:14;;;;;;;0.08;0.08;;;15.10;96.30;;;;;;4972510;28;20033;-68
2022/06/03 04:45:20;;;;;;;0.08;0.08;;;15.20;96.20;;;;;;4974165;28;20045;-68
2022/06/03 04:48:06;;;;;;;1.33;1.23;;;15.30;96.00;;;;;;4974074;28;20496;-67
2022/06/03 04:51:17;;;;;;;0.00;0.00;;;15.40;99.50;;;;;;4971821;28;20031;-68
2022/06/03 04:54:29;;;;;;;31.52;1.65;;;15.50;96.10;;;;;;4942962;28;20030;-67
2022/06/03 04:57:12;;;;;;;0.10;0.10;;;15.60;95.90;;;;;;4973632;28;20093;-67
2022/06/03 05:00:16;;;;;;;0.00;0.00;;;15.60;95.60;;;;;;4955652;28;20121;-68
2022/06/03 05:02:51;;;;;;;0.40;0.20;;;15.70;95.40;;;;;;4979010;28;20057;-68
2022/06/03 05:05:43;;;;;;;0.75;0.30;;;15.80;95.40;;;;;;4993245;28;20039;-68
2022/06/03 05:08:31;;;;;;;1.65;0.75;;;15.70;95.40;;;;;;4978116;28;20039;-68
2022/06/03 05:11:41;;;;;;;0.00;0.00;;;15.70;95.60;;;;;;4977229;28;20022;-68
2022/06/03 05:14:28;;;;;;;0.00;0.00;;;15.90;95.40;;;;;;4993497;28;20088;-68
2022/06/03 05:17:36;;;;;;;0.00;0.00;;;15.90;95.20;;;;;;4972030;28;20045;-70
2022/06/03 05:20:51;;;;;;;0.00;0.00;;;15.90;95.50;;;;;;4988604;28;20022;-68
2022/06/03 05:23:36;;;;;;;0.05;0.05;;;16.00;95.50;;;;;;4992590;28;20084;-67
2022/06/03 05:26:21;;;;;;;0.00;0.00;;;15.90;95.70;;;;;;4975249;28;20022;-67
2022/06/03 05:29:13;;;;;;;0.10;0.10;;;16.20;95.60;;;;;;4992089;28;20030;-67
2022/06/03 05:32:01;;;;;;;0.25;0.17;;;16.10;95.60;;;;;;4992596;28;20034;-66
2022/06/03 05:34:44;;;;;;;0.00;0.00;;;16.10;95.50;;;;;;4959140;28;20019;-67
2022/06/03 05:37:59;;;;;;;0.00;0.00;;;16.10;95.60;;;;;;4992456;28;20038;-68
2022/06/03 05:40:45;;;;;;;0.00;0.00;;;16.10;95.60;;;;;;4975813;28;20510;-68
2022/06/03 05:43:34;;;;;;;0.30;0.30;;;16.20;94.90;;;;;;4988743;28;20030;-67
2022/06/03 05:46:27;;;;;;;0.22;0.22;;;16.20;95.20;;;;;;4976120;28;20026;-66
2022/06/03 05:49:55;;;;;;;0.00;0.00;;;16.40;95.10;;;;;;4974267;28;20081;-66
2022/06/03 05:52:41;;;;;;;0.10;0.10;;;16.30;95.10;;;;;;4910347;29;20492;-66
2022/06/03 05:55:53;;;;;;;0.28;0.28;;;16.50;94.70;;;;;;4973641;28;20045;-67
2022/06/03 05:58:42;;;;;;;0.08;0.08;;;16.70;94.40;;;;;;4992196;28;20445;-67
2022/06/03 06:01:35;;;;;;;0.00;0.00;;;16.80;94.20;;;;;;4991480;28;20034;-67
2022/06/03 06:04:35;;;;;;;2.63;1.05;;;16.90;94.00;;;;;;4964975;28;20086;-67
2022/06/03 06:07:26;;;;;;;0.00;0.00;;;17.10;94.00;;;;;;4955839;28;20113;-67
2022/06/03 06:10:21;;;;;;;0.00;0.00;;;17.20;93.20;;;;;;4937054;28;20038;-67
2022/06/03 06:13:21;;;;;;;1.27;0.75;;;17.30;93.10;;;;;;4991421;28;20072;-68
2022/06/03 06:16:25;;;;;;;0.03;0.03;;;17.50;93.00;;;;;;4990400;28;20042;-67
2022/06/03 06:19:22;;;;;;;0.10;0.10;;;17.60;92.80;;;;;;4947587;28;20137;-67
2022/06/03 06:22:24;;;;;;;0.00;0.00;;;17.50;92.70;;;;;;4991857;28;20030;-67
2022/06/03 06:24:58;;;;;;;0.00;0.00;;;17.60;92.60;;;;;;4991595;28;20487;-67
2022/06/03 06:27:59;;;;;;;0.10;0.10;;;17.70;92.30;;;;;;4974560;28;20435;-67
2022/06/03 06:30:49;;;;;;;0.00;0.00;;;17.80;92.10;;;;;;4990864;28;20030;-67
2022/06/03 06:33:47;;;;;;;0.10;0.10;;;18.00;92.10;;;;;;4977227;28;20498;-67
2022/06/03 06:36:57;;;;;;;0.17;0.17;;;18.20;91.90;;;;;;4991300;28;20125;-67
2022/06/03 06:39:58;;;;;;;0.20;0.20;;;18.40;91.40;;;;;;4975158;28;20081;-67
2022/06/03 06:42:47;;;;;;;0.00;0.00;;;18.60;91.30;;;;;;4991700;28;20193;-66
2022/06/03 06:45:43;;;;;;;0.00;0.00;;;18.80;91.20;;;;;;4973530;28;20077;-67
2022/06/03 06:48:44;;;;;;;0.20;0.20;;;19.00;90.50;;;;;;4967083;28;20053;-67
2022/06/03 06:51:34;;;;;;;0.10;0.10;;;19.00;90.70;;;;;;4974871;28;20042;-67
2022/06/03 06:54:15;;;;;;;0.10;0.10;;;19.10;90.50;;;;;;4991596;28;20137;-67
2022/06/03 06:56:49;;;;;;;0.85;0.57;;;19.20;90.30;;;;;;4974210;28;20037;-68
2022/06/03 06:59:37;;;;;;;0.08;0.08;;;19.30;90.20;;;;;;4974015;28;20548;-68
2022/06/03 07:02:21;;;;;;;0.00;0.00;;;19.20;90.00;;;;;;4974823;28;20037;-68
2022/06/03 07:05:01;;;;;;;0.65;0.20;;;19.30;90.20;;;;;;4974964;28;20474;-68
2022/06/03 07:07:53;;;;;;;0.00;0.00;;;19.20;90.60;;;;;;4974279;28;20092;-67
2022/06/03 07:10:27;;;;;;;0.00;0.00;;;19.20;90.50;;;;;;4965016;28;20537;-67
2022/06/03 07:13:12;;;;;;;0.35;0.35;;;19.40;90.50;;;;;;4990958;28;20553;-68
2022/06/03 07:16:08;;;;;;;0.15;0.13;;;19.40;90.10;;;;;;4974042;28;20071;-67
2022/06/03 07:22:34;;;;;;;0.00;0.00;;;19.60;90.00;;;;;;4960200;28;20122;-67
2022/06/03 07:25:23;;;;;;;0.00;0.00;;;19.70;89.70;;;;;;4975868;28;20033;-67
2022/06/03 07:28:14;;;;;;;0.00;0.00;;;19.80;89.70;;;;;;4973181;28;20034;-66
2022/06/03 07:31:15;;;;;;;0.05;0.05;;;19.70;90.20;;;;;;4975921;28;20037;-66
2022/06/03 07:34:11;;;;;;;0.10;0.10;;;19.60;89.90;;;;;;4957815;28;20023;-67
2022/06/03 07:36:46;;;;;;;0.00;0.00;;;19.80;90.00;;;;;;4990671;28;20037;-66
2022/06/03 07:39:26;;;;;;;0.95;0.55;;;19.80;89.50;;;;;;4972869;28;20019;-67
2022/06/03 07:42:46;;;;;;;0.00;0.00;;;20.00;89.30;;;;;;4990866;28;20041;-67
2022/06/03 07:45:35;;;;;;;0.00;0.00;;;20.20;88.60;;;;;;4900236;29;20115;-66
2022/06/03 07:48:05;;;;;;;0.10;0.03;;;20.50;88.40;;;;;;4969547;28;20482;-67
2022/06/03 07:50:36;;;;;;;0.00;0.00;;;20.60;88.30;;;;;;4972552;28;20038;-67
2022/06/03 07:53:15;;;;;;;0.65;0.40;;;20.60;87.80;;;;;;4958367;28;20393;-67
2022/06/03 07:55:41;;;;;;;0.00;0.00;;;20.60;87.60;;;;;;4963080;28;20037;-67
2022/06/03 07:58:15;;;;;;;2.38;0.25;;;20.70;87.50;;;;;;4970945;28;20058;-67
2022/06/03 08:00:45;;;;;;;0.03;0.03;;;20.90;87.30;;;;;;4938149;28;20054;-67
2022/06/03 08:03:24;;;;;;;0.40;0.40;;;21.00;86.80;;;;;;4963176;28;20022;-67
2022/06/03 08:05:58;;;;;;;0.17;0.17;;;21.00;86.90;;;;;;4973619;28;20117;-67
2022/06/03 08:11:34;;;;;;;0.30;0.28;;;21.20;87.00;;;;;;4975582;28;20470;-67
2022/06/03 08:14:02;;;;;;;0.00;0.00;;;21.30;86.10;;;;;;4973452;28;20033;-67
2022/06/03 08:16:42;;;;;;;0.20;0.20;;;21.40;85.90;;;;;;4990391;28;20030;-67
2022/06/03 08:19:23;;;;;;;0.87;0.53;;;21.60;85.90;;;;;;4972417;28;20115;-67
2022/06/03 08:21:57;;;;;;;3.45;0.65;;;21.50;85.60;;;;;;4973493;28;20034;-67
2022/06/03 08:24:30;;;;;;;0.15;0.15;;;21.50;85.70;;;;;;4957150;28;20041;-66
2022/06/03 08:27:02;;;;;;;0.95;0.77;;;21.40;85.60;;;;;;4977495;28;20038;-67
2022/06/03 08:29:43;;;;;;;0.38;0.32;;;21.50;85.70;;;;;;4976099;28;20513;-67
2022/06/03 08:32:35;;;;;;;0.13;0.13;;;21.70;85.90;;;;;;4977305;28;20035;-67
2022/06/03 08:35:10;;;;;;;0.32;0.28;;;21.90;85.70;;;;;;4993872;28;20483;-67
2022/06/03 08:37:48;;;;;;;0.45;0.15;;;21.80;86.10;;;;;;4977026;28;20041;-68
2022/06/03 08:40:54;;;;;;;0.15;0.15;;;21.90;84.80;;;;;;4959840;28;20176;-67
2022/06/03 08:43:32;;;;;;;0.00;0.00;;;22.00;84.90;;;;;;4977185;28;20549;-67
2022/06/03 08:46:13;;;;;;;0.35;0.32;;;22.10;84.80;;;;;;4976748;28;20034;-68
2022/06/03 08:48:45;;;;;;;0.10;0.10;;;22.20;85.00;;;;;;4976319;28;20053;-67
2022/06/03 08:51:27;;;;;;;0.00;0.00;;;22.40;85.30;;;;;;4993754;28;20093;-67
2022/06/03 08:54:10;;;;;;;0.00;0.00;;;22.40;84.50;;;;;;4977309;28;20022;-67
2022/06/03 08:56:41;;;;;;;0.28;0.20;;;22.60;84.80;;;;;;4975968;28;20073;-67
2022/06/03 08:59:25;;;;;;;0.00;0.00;;;22.80;84.80;;;;;;4975882;28;20466;-67
2022/06/03 09:01:57;;;;;;;0.20;0.15;;;22.90;84.10;;;;;;4976339;28;20034;-67
2022/06/03 09:04:30;;;;;;;0.40;0.40;;;23.10;83.30;;;;;;4993406;28;20150;-67
2022/06/03 09:07:36;;;;;;;0.10;0.10;;;23.10;83.10;;;;;;4976935;28;20522;-67
2022/06/03 09:10:28;;;;;;;0.20;0.20;;;23.10;83.90;;;;;;4977868;28;20031;-67
2022/06/03 09:13:38;;;;;;;0.32;0.20;;;23.20;83.60;;;;;;4976764;28;20097;-68
2022/06/03 09:16:06;;;;;;;0.00;0.00;;;23.30;83.90;;;;;;4993041;28;20459;-67
2022/06/03 09:18:41;;;;;;;0.00;0.00;;;23.50;83.20;;;;;;4992508;28;20037;-67
2022/06/03 09:21:17;;;;;;;0.00;0.00;;;23.60;82.60;;;;;;4976268;28;20030;-67
2022/06/03 09:23:48;;;;;;;0.30;0.30;;;23.80;82.90;;;;;;4992812;28;20113;-68
2022/06/03 09:26:36;;;;;;;;;;;23.80;81.60;;;;;;4975493;28;20030;-68
2022/06/03 09:29:05;;;;;;;0.10;0.10;;;23.60;83.00;;;;;;4974638;28;19973;-67
2022/06/03 09:31:36;;;;;;;0.10;0.10;;;23.90;82.80;;;;;;4975068;28;20023;-67
2022/06/03 09:34:03;;;;;;;0.85;0.45;;;24.10;81.50;;;;;;4974536;28;20041;-67
2022/06/03 09:36:32;;;;;;;0.03;0.03;;;23.90;81.50;;;;;;4973642;28;20490;-67
2022/06/03 09:39:14;;;;;;;0.00;0.00;;;24.00;82.10;;;;;;4974098;28;20422;-67
2022/06/03 09:41:53;;;;;;;0.10;0.10;;;24.40;82.80;;;;;;4959518;28;20426;-67
2022/06/03 09:44:23;;;;;;;0.47;0.47;;;24.60;81.90;;;;;;4974928;28;20490;-67
2022/06/03 09:46:59;;;;;;;0.10;0.10;;;24.90;81.10;;;;;;4974047;28;20064;-68
2022/06/03 09:49:26;;;;;;;0.00;0.00;;;24.90;80.40;;;;;;4990575;28;20045;-67
2022/06/03 09:52:25;;;;;;;0.75;0.45;;;25.00;80.20;;;;;;4974167;28;20026;-68
2022/06/03 09:54:46;;;;;;;0.10;0.10;;;25.20;80.50;;;;;;4976663;28;20042;-68
2022/06/03 09:57:32;;;;;;;0.00;0.00;;;25.50;79.70;;;;;;4974110;28;20502;-68
2022/06/03 10:00:35;;;;;;;0.65;0.38;;;25.70;78.40;;;;;;4990783;28;20101;-67
2022/06/03 10:03:03;;;;;;;0.00;0.00;;;25.60;78.80;;;;;;4975935;28;20105;-67
2022/06/03 10:05:29;;;;;;;0.00;0.00;;;26.00;78.00;;;;;;4982595;28;20035;-67
2022/06/03 10:08:02;;;;;;;4.22;0.60;;;26.10;77.40;;;;;;4952695;28;20046;-68
2022/06/03 10:13:15;;;;;;;0.00;0.00;;;26.70;77.00;;;;;;4955611;28;20174;-67
2022/06/03 10:15:53;;;;;;;0.05;0.05;;;27.10;77.00;;;;;;4970815;28;20109;-65
2022/06/03 10:18:34;;;;;;;0.00;0.00;;;27.00;76.10;;;;;;4989730;28;20509;-65
2022/06/03 10:21:20;;;;;;;0.57;0.28;;;27.30;76.70;;;;;;4991310;28;20081;-64
2022/06/03 10:24:17;;;;;;;0.10;0.10;;;27.50;76.30;;;;;;4977211;28;20093;-64
2022/06/03 10:26:49;;;;;;;0.10;0.10;;;26.90;75.90;;;;;;4924375;28;1078567;-64
2022/06/03 10:29:25;;;;;;;0.20;0.10;;;27.00;74.90;;;;;;4991386;28;20294;-64
2022/06/03 10:32:10;;;;;;;0.00;0.00;;;27.40;75.90;;;;;;4992045;28;20048;-64
2022/06/03 10:34:40;;;;;;;0.00;0.00;;;27.60;74.10;;;;;;4955880;28;20034;-64
2022/06/03 10:37:15;;;;;;;0.00;0.00;;;27.50;74.40;;;;;;4954944;28;20100;-64
2022/06/03 10:39:43;;;;;;;0.43;0.25;;;27.60;75.10;;;;;;4954683;28;20081;-65
2022/06/03 10:42:18;;;;;;;0.00;0.00;;;27.60;73.60;;;;;;4970810;28;20035;-65
2022/06/03 10:44:55;;;;;;;0.10;0.10;;;27.70;74.00;;;;;;4972478;28;20034;-64
2022/06/03 10:47:38;;;;;;;0.52;0.52;;;27.70;73.90;;;;;;4955299;28;20031;-64
2022/06/03 10:50:12;;;;;;;0.15;0.15;;;27.60;74.20;;;;;;4954530;28;20051;-64
2022/06/03 11:01:33;;;;;;;0.75;0.22;;;27.40;75.30;;;;;;4990790;28;20035;-64
2022/06/03 11:04:01;;;;;;;0.35;0.30;;;27.70;74.90;;;;;;4990809;28;20066;-65
2022/06/03 11:06:38;;;;;;;0.10;0.10;;;27.90;74.60;;;;;;4970152;28;20065;-65
2022/06/03 11:09:09;;;;;;;0.52;0.30;;;28.10;74.50;;;;;;4970980;28;20034;-65
2022/06/03 11:11:47;;;;;;;0.45;0.45;;;28.30;73.90;;;;;;4972161;28;20093;-65
2022/06/03 11:14:25;;;;;;;0.03;0.03;;;28.50;73.80;;;;;;4971507;28;20046;-65
2022/06/03 11:16:53;;;;;;;0.13;0.13;;;28.70;73.20;;;;;;4971488;28;20030;-65
2022/06/03 11:19:20;;;;;;;0.25;0.17;;;28.10;72.60;;;;;;4970505;28;20114;-65
2022/06/03 11:21:46;;;;;;;0.70;0.65;;;28.10;74.20;;;;;;4954209;28;20037;-65
2022/06/03 11:24:13;;;;;;;0.15;0.15;;;28.20;73.70;;;;;;4971149;28;20584;-65
2022/06/03 11:26:45;;;;;;;0.32;0.28;;;28.60;73.50;;;;;;4954105;28;20145;-64
2022/06/03 11:29:29;;;;;;;0.08;0.08;;;28.70;73.00;;;;;;4937921;28;20027;-65
2022/06/03 11:31:55;;;;;;;0.20;0.20;;;28.50;73.60;;;;;;4955698;28;20039;-65
2022/06/03 11:35:02;;;;;;;0.10;0.10;;;28.60;72.70;;;;;;4972710;28;20474;-65
2022/06/03 11:37:35;;;;;;;0.25;0.15;;;28.50;73.20;;;;;;4976830;28;20390;-67
2022/06/03 11:40:43;;;;;;;0.10;0.10;;;28.60;72.60;;;;;;4973332;28;20026;-66
2022/06/03 11:43:34;;;;;;;0.80;0.70;;;28.60;72.60;;;;;;4976532;28;20030;-64
2022/06/03 11:46:12;;;;;;;0.32;0.32;;;29.00;72.70;;;;;;4973818;28;20026;-64
2022/06/03 11:48:42;;;;;;;0.30;0.10;;;28.70;72.60;;;;;;4957068;28;20106;-64
2022/06/03 11:51:11;;;;;;;0.38;0.28;;;29.10;72.20;;;;;;4990275;28;20034;-65
2022/06/03 11:53:48;;;;;;;0.15;0.15;;;28.80;72.50;;;;;;4973405;28;20038;-65
2022/06/03 11:56:22;;;;;;;0.20;0.20;;;28.90;73.30;;;;;;4990404;28;20722;-64
2022/06/03 11:59:15;;;;;;;0.08;0.08;;;29.40;72.20;;;;;;4973099;28;20052;-63
2022/06/03 12:01:49;;;;;;;0.05;0.05;;;29.60;72.60;;;;;;4994247;28;20065;-64
2022/06/03 12:04:55;;;;;;;0.82;0.20;;;29.70;71.50;;;;;;4976938;28;20054;-64
2022/06/03 12:07:41;;;;;;;0.00;0.00;;;30.10;70.10;;;;;;4994090;28;20106;-63
2022/06/03 12:10:37;;;;;;;0.32;0.25;;;29.50;70.90;;;;;;4960970;28;20128;-63
2022/06/03 12:13:30;;;;;;;0.00;0.00;;;28.70;72.00;;;;;;4974578;28;20373;-63
2022/06/03 12:15:56;;;;;;;0.55;0.47;;;28.90;71.90;;;;;;4942058;28;20026;-63
2022/06/03 12:18:31;;;;;;;0.35;0.35;;;28.00;73.50;;;;;;4977138;28;20116;-65
2022/06/03 12:21:01;;;;;;;0.40;0.30;;;28.30;73.40;;;;;;4974539;28;20391;-65
2022/06/03 12:23:27;;;;;;;1.20;0.80;;;28.00;74.40;;;;;;4974558;28;20035;-65
2022/06/03 12:25:53;;;;;;;0.17;0.17;;;28.30;73.90;;;;;;4974725;28;20035;-65
2022/06/03 12:28:21;;;;;;;0.68;0.65;;;28.30;74.60;;;;;;4957273;28;20121;-64
2022/06/03 12:31:19;;;;;;;0.28;0.03;;;27.80;74.30;;;;;;4973816;28;20043;-64
2022/06/03 12:34:14;;;;;;;0.60;0.38;;;28.00;74.00;;;;;;4974264;28;20090;-64
2022/06/03 12:36:52;;;;;;;0.00;0.00;;;28.30;73.90;;;;;;4957944;28;20474;-64
2022/06/03 12:39:56;;;;;;;0.20;0.13;;;28.20;74.10;;;;;;4973720;28;20487;-63
2022/06/03 12:42:31;;;;;;;0.10;0.10;;;28.20;73.40;;;;;;4973914;28;20104;-66
2022/06/03 12:44:56;;;;;;;0.32;0.28;;;28.00;73.90;;;;;;4957496;28;20023;-64
2022/06/03 12:47:22;;;;;;;0.15;0.10;;;27.90;74.90;;;;;;4974304;28;20081;-64
2022/06/03 12:49:50;;;;;;;0.32;0.30;;;28.00;74.60;;;;;;4973583;28;20031;-64
2022/06/03 12:52:25;;;;;;;0.32;0.22;;;27.90;74.40;;;;;;4974201;28;20042;-65
2022/06/03 12:55:29;;;;;;;0.20;0.20;;;27.70;75.10;;;;;;4974184;28;20403;-64
2022/06/03 12:58:16;;;;;;;0.10;0.10;;;27.60;75.80;;;;;;4931872;28;20047;-64
2022/06/03 13:00:57;;;;;;;0.50;0.20;;;27.40;75.40;;;;;;4972658;28;20056;-64
2022/06/03 13:03:23;;;;;;;0.00;0.00;;;27.30;76.20;;;;;;4967761;28;20030;-64
2022/06/03 13:05:50;;;;;;;0.43;0.28;;;27.10;76.70;;;;;;4976224;28;20034;-65
2022/06/03 13:08:28;;;;;;;0.30;0.30;;;27.00;77.40;;;;;;4976386;28;20032;-64
2022/06/03 13:11:19;;;;;;;8.88;0.88;;;26.70;77.60;;;;;;4992261;28;20049;-64
2022/06/03 13:13:55;;;;;;;0.32;0.30;;;26.70;77.90;;;;;;4975633;28;20045;-64
2022/06/03 13:16:31;;;;;;;0.10;0.10;;;26.60;78.20;;;;;;4993354;28;20042;-64
2022/06/03 13:19:17;;;;;;;1.02;0.75;;;26.60;78.40;;;;;;4992139;28;20041;-64
2022/06/03 13:21:58;;;;;;;0.15;0.15;;;26.50;78.90;;;;;;4992535;28;20719;-64
2022/06/03 13:24:36;;;;;;;0.35;0.22;;;26.40;79.30;;;;;;4993027;28;20173;-64
2022/06/03 13:27:20;;;;;;;0.55;0.20;;;26.30;79.40;;;;;;4992977;28;20042;-64
2022/06/03 13:29:49;;;;;;;16.90;0.63;;;26.30;79.50;;;;;;4974518;28;20034;-64
2022/06/03 13:32:20;;;;;;;0.20;0.20;;;26.30;80.10;;;;;;4992918;28;20027;-64
2022/06/03 13:34:46;;;;;;;0.52;0.30;;;26.20;80.40;;;;;;4992632;28;20030;-64
2022/06/03 13:37:55;;;;;;;0.35;0.30;;;26.10;80.70;;;;;;4992925;28;20034;-69
2022/06/03 13:40:24;;;;;;;0.20;0.20;;;26.10;80.70;;;;;;4941628;28;20038;-64
2022/06/03 13:43:09;;;;;;;0.17;0.17;;;26.00;81.30;;;;;;4992598;28;20034;-64
2022/06/03 13:45:58;;;;;;;0.00;0.00;;;25.90;81.20;;;;;;4978502;28;20043;-64
2022/06/03 13:48:44;;;;;;;0.15;0.13;;;25.90;81.70;;;;;;4992298;28;20113;-64
2022/06/03 13:51:47;;;;;;;0.00;0.00;;;25.90;81.80;;;;;;4992630;28;20026;-64
2022/06/03 13:54:21;;;;;;;0.00;0.00;;;25.90;81.20;;;;;;4992421;28;20064;-64
2022/06/03 13:57:16;;;;;;;0.10;0.10;;;25.90;82.90;;;;;;4992376;28;20068;-64
2022/06/03 13:59:43;;;;;;;0.15;0.15;;;25.80;83.00;;;;;;4991805;28;20022;-64
2022/06/03 14:02:39;;;;;;;0.10;0.10;;;25.70;84.20;;;;;;4992269;28;20041;-65
2022/06/03 14:05:14;;;;;;;0.57;0.57;;;25.70;84.10;;;;;;4976564;28;20105;-64
2022/06/03 14:07:58;;;;;;;9.77;0.38;;;25.70;84.90;;;;;;4974770;28;20045;-65
2022/06/03 14:10:26;;;;;;;0.30;0.17;;;25.70;85.60;;;;;;4973013;28;20046;-65
2022/06/03 14:13:14;;;;;;;1.00;0.55;;;25.70;86.40;;;;;;4971347;28;20039;-65
2022/06/03 14:16:08;;;;;;;0.55;0.40;;;25.70;88.30;;;;;;4957076;28;20115;-64
2022/06/03 14:18:56;;;;;;;0.75;0.75;;;25.60;89.20;;;;;;4955657;28;20034;-65
2022/06/03 14:21:43;;;;;;;0.50;0.20;;;25.50;90.10;;;;;;4972530;28;20507;-65
2022/06/03 14:24:36;;;;;;;1.00;0.88;;;25.40;88.30;;;;;;4962982;28;20165;-65
2022/06/03 14:27:20;;;;;;;0.65;0.50;;;25.20;88.60;;;;;;4974948;28;20075;-65
2022/06/03 14:30:00;;;;;;;0.28;0.22;;;25.10;89.80;;;;;;4974889;28;20066;-65
2022/06/03 14:32:32;;;;;;;1.88;0.55;;;25.00;89.20;;;;;;4960320;28;20035;-65
2022/06/03 14:35:10;;;;;;;0.80;0.52;;;24.90;89.20;;;;;;4974689;28;20565;-64
2022/06/03 14:37:57;;;;;;;0.60;0.28;;;24.80;90.80;;;;;;4974896;28;20097;-65
2022/06/03 14:40:32;;;;;;;0.88;0.55;;;24.50;91.70;;;;;;4975260;28;20475;-65
2022/06/03 14:43:00;;;;;;;0.40;0.40;;;24.10;92.80;;;;;;4974833;28;20030;-65
2022/06/03 14:45:37;;;;;;;4.47;1.02;;;23.80;94.40;;;;;;4958417;28;20049;-65
2022/06/03 14:48:12;;;;;;;0.43;0.43;;;23.50;95.30;;;;;;4974663;28;20120;-64
2022/06/03 14:50:46;;;;;;;0.40;0.40;;;23.30;96.20;;;;;;4974082;28;20034;-65
2022/06/03 14:53:35;;;;;;;5.75;0.85;;;23.10;97.30;;;;;;4974780;28;20478;-64